createdAt,value
2022-11-24T00:01:18.118Z,100477.53
2022-11-24T00:03:51.818Z,100482.81
2022-11-24T00:06:18.931Z,100485.59
2022-11-24T00:08:46.779Z,100483.03
2022-11-24T00:11:18.015Z,100476.00
2022-11-24T00:13:45.773Z,100476.06
2022-11-24T00:16:20.797Z,100470.91
2022-11-24T00:18:50.442Z,100463.94
2022-11-24T00:21:19.145Z,100469.34
2022-11-24T00:23:48.770Z,100465.03
2022-11-24T00:26:22.212Z,100475.72
2022-11-24T00:28:53.951Z,100470.56
2022-11-24T00:31:25.184Z,100472.41
2022-11-24T00:33:57.282Z,100471.56
2022-11-24T00:36:27.438Z,100466.25
2022-11-24T00:39:01.161Z,100473.28
2022-11-24T00:41:29.800Z,100481.13
2022-11-24T00:43:57.619Z,100471.44
2022-11-24T00:46:26.175Z,100467.03
2022-11-24T00:48:54.017Z,100467.13
2022-11-24T00:51:27.092Z,100466.38
2022-11-24T00:53:56.397Z,100457.63
2022-11-24T00:56:24.626Z,100468.09
2022-11-24T00:58:52.232Z,100474.56
2022-11-24T01:01:24.491Z,100483.75
2022-11-24T01:03:52.590Z,100485.72
2022-11-24T01:06:26.103Z,100486.63
2022-11-24T01:08:53.350Z,100493.66
2022-11-24T01:11:28.139Z,100496.16
2022-11-24T01:13:59.340Z,100513.78
2022-11-24T01:16:33.960Z,100524.41
2022-11-24T01:19:03.813Z,100528.81
2022-11-24T01:21:30.864Z,100537.72
2022-11-24T01:23:57.913Z,100534.28
2022-11-24T01:26:24.947Z,100544.00
2022-11-24T01:28:57.249Z,100557.34
2022-11-24T01:31:26.544Z,100571.63
2022-11-24T01:33:54.641Z,100583.16
2022-11-24T01:36:22.908Z,100588.38
2022-11-24T01:38:50.296Z,100595.56
2022-11-24T01:41:20.878Z,100604.75
2022-11-24T01:43:48.719Z,100611.09
2022-11-24T01:46:31.634Z,100609.41
2022-11-24T01:49:22.733Z,100600.63
2022-11-24T01:51:58.436Z,100607.63
2022-11-24T01:54:31.943Z,100613.84
2022-11-24T01:57:08.097Z,100622.69
2022-11-24T01:59:35.238Z,100633.22
2022-11-24T02:02:02.441Z,100634.09
2022-11-24T02:04:33.311Z,100633.28
2022-11-24T02:07:03.096Z,100635.06
2022-11-24T02:09:56.255Z,100638.75
2022-11-24T02:12:26.876Z,100633.44
2022-11-24T02:14:55.724Z,100629.94
2022-11-24T02:17:24.223Z,100638.00
2022-11-24T02:20:08.159Z,100639.69
2022-11-24T02:22:41.698Z,100626.56
2022-11-24T02:25:28.201Z,100638.09
2022-11-24T02:27:58.363Z,100642.53
2022-11-24T02:30:25.498Z,100645.16
2022-11-24T02:32:52.810Z,100636.38
2022-11-24T02:35:20.432Z,100646.06
2022-11-24T02:37:47.594Z,100635.66
2022-11-24T02:40:25.427Z,100644.53
2022-11-24T02:43:05.350Z,100632.16
2022-11-24T02:45:32.489Z,100630.38
2022-11-24T02:47:59.649Z,100630.19
2022-11-24T02:50:26.775Z,100628.25
2022-11-24T02:52:53.792Z,100636.78
2022-11-24T02:55:20.817Z,100632.59
2022-11-24T02:57:47.964Z,100636.84
2022-11-24T03:00:17.643Z,100649.09
2022-11-24T03:02:44.800Z,100655.94
2022-11-24T03:05:12.646Z,100640.94
2022-11-24T03:07:39.763Z,100625.88
2022-11-24T03:10:07.623Z,100625.75
2022-11-24T03:12:34.774Z,100637.09
2022-11-24T03:15:03.339Z,100650.28
2022-11-24T03:17:30.826Z,100651.03
2022-11-24T03:20:02.989Z,100648.31
2022-11-24T03:22:31.895Z,100643.91
2022-11-24T03:24:59.351Z,100642.97
2022-11-24T03:27:26.404Z,100649.19
2022-11-24T03:29:53.473Z,100645.66
2022-11-24T03:32:20.969Z,100645.72
2022-11-24T03:34:48.179Z,100643.13
2022-11-24T03:37:15.536Z,100641.41
2022-11-24T03:39:42.661Z,100638.84
2022-11-24T03:42:09.634Z,100641.63
2022-11-24T03:44:36.881Z,100645.25
2022-11-24T03:47:03.971Z,100636.53
2022-11-24T03:49:31.101Z,100644.50
2022-11-24T03:52:00.611Z,100642.84
2022-11-24T03:54:29.667Z,100649.09
2022-11-24T03:56:56.889Z,100651.84
2022-11-24T03:59:23.972Z,100657.19
2022-11-24T04:01:51.582Z,100651.91
2022-11-24T04:04:18.756Z,100660.66
2022-11-24T04:06:46.114Z,100667.78
2022-11-24T04:09:13.159Z,100667.78
2022-11-24T04:11:58.868Z,100674.81
2022-11-24T04:14:26.007Z,100681.94
2022-11-24T04:16:52.999Z,100681.94
2022-11-24T04:19:19.929Z,100691.66
2022-11-24T04:21:46.954Z,100689.03
2022-11-24T04:24:14.796Z,100693.53
2022-11-24T04:26:41.851Z,100698.00
2022-11-24T04:29:10.051Z,100700.66
2022-11-24T04:31:37.556Z,100704.22
2022-11-24T04:34:04.845Z,100715.59
2022-11-24T04:36:31.898Z,100722.69
2022-11-24T04:39:19.405Z,100727.06
2022-11-24T04:41:48.323Z,100729.72
2022-11-24T04:44:15.445Z,100730.56
2022-11-24T04:46:42.519Z,100732.28
2022-11-24T04:49:12.395Z,100732.25
2022-11-24T04:51:40.613Z,100749.88
2022-11-24T04:54:10.427Z,100738.56
2022-11-24T04:56:37.484Z,100750.91
2022-11-24T04:59:08.470Z,100747.47
2022-11-24T05:01:36.658Z,100750.22
2022-11-24T05:04:04.120Z,100754.69
2022-11-24T05:06:33.204Z,100756.47
2022-11-24T05:09:01.058Z,100765.28
2022-11-24T05:11:28.819Z,100764.44
2022-11-24T05:13:56.243Z,100763.66
2022-11-24T05:16:23.355Z,100777.88
2022-11-24T05:18:50.484Z,100777.97
2022-11-24T05:21:17.649Z,100779.84
2022-11-24T05:23:45.195Z,100779.09
2022-11-24T05:26:12.537Z,100777.53
2022-11-24T05:28:39.626Z,100776.69
2022-11-24T05:31:07.096Z,100789.06
2022-11-24T05:33:34.159Z,100798.91
2022-11-24T05:36:04.547Z,100813.13
2022-11-24T05:38:33.081Z,100814.09
2022-11-24T05:41:05.594Z,100808.84
2022-11-24T05:43:32.686Z,100805.38
2022-11-24T05:46:02.793Z,100802.00
2022-11-24T05:48:29.760Z,100810.84
2022-11-24T05:50:58.758Z,100805.63
2022-11-24T05:53:27.201Z,100810.91
2022-11-24T05:55:54.343Z,100805.63
2022-11-24T05:58:21.420Z,100809.06
2022-11-24T06:00:48.663Z,100809.03
2022-11-24T06:03:16.102Z,100815.22
2022-11-24T06:05:47.293Z,100818.78
2022-11-24T06:08:14.926Z,100821.44
2022-11-24T06:10:42.033Z,100815.28
2022-11-24T06:13:09.267Z,100820.63
2022-11-24T06:15:37.853Z,100821.59
2022-11-24T06:18:05.083Z,100830.38
2022-11-24T06:20:33.030Z,100826.88
2022-11-24T06:23:01.390Z,100833.03
2022-11-24T06:25:31.057Z,100842.81
2022-11-24T06:27:58.114Z,100843.75
2022-11-24T06:30:25.912Z,100840.34
2022-11-24T06:32:56.240Z,100849.19
2022-11-24T06:35:23.326Z,100851.00
2022-11-24T06:37:50.723Z,100854.50
2022-11-24T06:40:17.966Z,100848.31
2022-11-24T06:42:51.463Z,100850.06
2022-11-24T06:45:19.068Z,100866.78
2022-11-24T06:47:46.311Z,100847.34
2022-11-24T06:50:13.442Z,100865.75
2022-11-24T06:52:40.475Z,100875.41
2022-11-24T06:55:08.324Z,100878.97
2022-11-24T06:57:35.411Z,100888.69
2022-11-24T07:00:08.022Z,100901.03
2022-11-24T07:02:35.596Z,100904.50
2022-11-24T07:05:02.790Z,100907.13
2022-11-24T07:07:30.481Z,100912.41
2022-11-24T07:10:07.626Z,100911.53
2022-11-24T07:12:35.384Z,100915.06
2022-11-24T07:15:02.464Z,100912.38
2022-11-24T07:17:29.584Z,100922.88
2022-11-24T07:19:56.739Z,100932.53
2022-11-24T07:22:23.857Z,100930.66
2022-11-24T07:24:50.829Z,100931.50
2022-11-24T07:27:18.002Z,100926.16
2022-11-24T07:29:45.099Z,100939.28
2022-11-24T07:32:15.316Z,100956.97
2022-11-24T07:34:42.351Z,100952.59
2022-11-24T07:37:09.517Z,100957.84
2022-11-24T07:39:36.587Z,100966.59
2022-11-24T07:42:05.284Z,100968.19
2022-11-24T07:44:35.108Z,100962.97
2022-11-24T07:47:03.076Z,100961.13
2022-11-24T07:49:30.240Z,100967.31
2022-11-24T07:51:57.430Z,100975.09
2022-11-24T07:54:24.548Z,100987.34
2022-11-24T07:56:51.667Z,100981.00
2022-11-24T07:59:19.045Z,100983.38
2022-11-24T08:01:46.288Z,100988.59
2022-11-24T08:04:13.571Z,100981.50
2022-11-24T08:06:47.135Z,100982.19
2022-11-24T08:09:14.626Z,100976.88
2022-11-24T08:11:41.637Z,100994.31
2022-11-24T08:14:08.833Z,100993.44
2022-11-24T08:16:36.392Z,101009.13
2022-11-24T08:19:03.515Z,101005.22
2022-11-24T08:21:30.706Z,100998.19
2022-11-24T08:23:58.419Z,101001.63
2022-11-24T08:26:26.532Z,101002.41
2022-11-24T08:28:57.620Z,101000.50
2022-11-24T08:31:27.541Z,101007.41
2022-11-24T08:33:56.112Z,100994.00
2022-11-24T08:36:23.425Z,100988.53
2022-11-24T08:38:56.543Z,100998.19
2022-11-24T08:41:24.965Z,100997.19
2022-11-24T08:43:53.818Z,101005.84
2022-11-24T08:46:22.403Z,101001.19
2022-11-24T08:48:54.443Z,101001.88
2022-11-24T08:51:25.107Z,101004.34
2022-11-24T08:54:01.953Z,100994.53
2022-11-24T08:56:32.497Z,101007.75
2022-11-24T08:59:02.650Z,101004.00
2022-11-24T09:01:30.139Z,100998.06
2022-11-24T09:03:57.875Z,101016.53
2022-11-24T09:06:30.940Z,101020.69
2022-11-24T09:09:01.914Z,101030.13
2022-11-24T09:11:30.981Z,101021.81
2022-11-24T09:13:58.221Z,101010.13
2022-11-24T09:16:29.069Z,101009.06
2022-11-24T09:19:08.207Z,101002.66
2022-11-24T09:21:38.747Z,101008.59
2022-11-24T09:24:11.147Z,101014.63
2022-11-24T09:26:41.869Z,101018.78
2022-11-24T09:29:12.626Z,101015.78
2022-11-24T09:31:40.090Z,101018.03
2022-11-24T09:34:11.529Z,101017.78
2022-11-24T09:36:39.913Z,101017.53
2022-11-24T09:39:07.371Z,101010.22
2022-11-24T09:42:05.157Z,101030.28
2022-11-24T09:44:54.705Z,101043.25
2022-11-24T09:47:37.934Z,101040.13
2022-11-24T09:50:24.687Z,101050.63
2022-11-24T09:53:10.630Z,101056.63
2022-11-24T09:55:50.167Z,101059.91
2022-11-24T09:58:42.721Z,101056.00
2022-11-24T10:01:20.792Z,101063.66
2022-11-24T10:03:52.137Z,101058.91
2022-11-24T10:06:44.783Z,101059.38
2022-11-24T10:09:27.193Z,101054.00
2022-11-24T10:12:07.110Z,101052.66
2022-11-24T10:15:16.645Z,101059.44
2022-11-24T10:18:21.089Z,101052.09
2022-11-24T10:21:50.975Z,101060.69
2022-11-24T10:24:38.712Z,101062.03
2022-11-24T10:27:45.025Z,101057.38
2022-11-24T10:30:21.647Z,101056.19
2022-11-24T10:32:57.866Z,101043.41
2022-11-24T10:36:03.976Z,101039.41
2022-11-24T10:38:41.545Z,101043.59
2022-11-24T10:41:18.143Z,101048.53
2022-11-24T10:43:45.370Z,101053.56
2022-11-24T10:46:20.271Z,101046.09
2022-11-24T10:48:53.389Z,101041.53
2022-11-24T10:51:48.897Z,101048.16
2022-11-24T10:54:21.329Z,101048.78
2022-11-24T10:56:52.239Z,101034.34
2022-11-24T10:59:33.497Z,101038.38
2022-11-24T11:02:01.475Z,101053.34
2022-11-24T11:04:35.011Z,101052.06
2022-11-24T11:07:28.694Z,101047.59
2022-11-24T11:10:23.578Z,101039.97
2022-11-24T11:12:51.291Z,101032.59
2022-11-24T11:15:30.308Z,101032.09
2022-11-24T11:17:59.750Z,101032.81
2022-11-24T11:20:34.483Z,101028.97
2022-11-24T11:23:15.427Z,101029.53
2022-11-24T11:25:43.847Z,101036.31
2022-11-24T11:28:23.766Z,101028.78
2022-11-24T11:31:20.653Z,101034.72
2022-11-24T11:34:35.478Z,101027.06
2022-11-24T11:37:04.906Z,101034.00
2022-11-24T11:39:37.386Z,101032.69
2022-11-24T11:43:00.859Z,101024.28
2022-11-24T11:45:30.201Z,101027.44
2022-11-24T11:48:42.298Z,101027.19
2022-11-24T11:51:42.552Z,101024.84
2022-11-24T11:54:30.832Z,101023.66
2022-11-24T11:57:32.631Z,101028.50
2022-11-24T12:00:18.634Z,101039.72
2022-11-24T12:03:25.515Z,101032.97
2022-11-24T12:06:11.423Z,101038.22
2022-11-24T12:09:21.736Z,101031.69
2022-11-24T12:12:20.502Z,101034.03
2022-11-24T12:15:52.210Z,101029.13
2022-11-24T12:18:57.567Z,101031.41
2022-11-24T12:21:35.833Z,101036.47
2022-11-24T12:24:33.973Z,101028.97
2022-11-24T12:27:31.825Z,101034.94
2022-11-24T12:30:13.864Z,101020.34
2022-11-24T12:33:20.776Z,101016.41
2022-11-24T12:36:04.020Z,101011.66
2022-11-24T12:38:50.770Z,101001.59
2022-11-24T12:42:11.281Z,101010.16
2022-11-24T12:45:13.987Z,101010.22
2022-11-24T12:48:13.036Z,101010.56
2022-11-24T12:50:44.582Z,101008.31
2022-11-24T12:53:17.765Z,101012.63
2022-11-24T12:55:46.414Z,101015.81
2022-11-24T12:58:41.540Z,101016.41
2022-11-24T13:01:36.383Z,101027.72
2022-11-24T13:04:07.123Z,101035.72
2022-11-24T13:06:53.666Z,101032.88
2022-11-24T13:09:21.307Z,101027.25
2022-11-24T13:11:51.596Z,101022.75
2022-11-24T13:14:23.534Z,101019.81
2022-11-24T13:17:28.746Z,101016.00
2022-11-24T13:19:48.297Z,101003.31
2022-11-24T13:22:24.533Z,101006.47
2022-11-24T13:25:15.302Z,101007.16
2022-11-24T13:27:46.217Z,101003.44
2022-11-24T13:30:35.951Z,101008.00
2022-11-24T13:33:16.429Z,101006.97
2022-11-24T13:36:03.030Z,101013.09
2022-11-24T13:38:53.621Z,101009.38
2022-11-24T13:45:45.037Z,101009.47
2022-11-24T13:48:22.480Z,101001.28
2022-11-24T13:50:50.534Z,101000.34
2022-11-24T13:53:43.940Z,101002.81
2022-11-24T13:56:14.333Z,100996.41
2022-11-24T13:58:56.541Z,100987.31
2022-11-24T14:01:37.328Z,100988.00
2022-11-24T14:04:32.265Z,100983.31
2022-11-24T14:07:09.067Z,100978.84
2022-11-24T14:09:46.639Z,100985.78
2022-11-24T14:12:26.181Z,100984.84
2022-11-24T14:14:57.584Z,100984.84
2022-11-24T14:17:28.791Z,100998.16
2022-11-24T14:19:58.313Z,100990.22
2022-11-24T14:22:39.788Z,100995.66
2022-11-24T14:25:30.755Z,100988.66
2022-11-24T14:28:00.717Z,100992.31
2022-11-24T14:30:28.547Z,100994.19
2022-11-24T14:33:02.290Z,101000.63
2022-11-24T14:35:35.720Z,101008.19
2022-11-24T14:38:06.117Z,101002.16
2022-11-24T14:40:55.267Z,101008.72
2022-11-24T14:43:26.470Z,100999.44
2022-11-24T14:46:05.185Z,101000.75
2022-11-24T14:48:48.136Z,101000.16
2022-11-24T14:51:22.148Z,101005.91
2022-11-24T14:53:53.346Z,101005.47
2022-11-24T14:56:24.505Z,101002.31
2022-11-24T14:58:53.476Z,101011.53
2022-11-24T15:01:27.536Z,101012.97
2022-11-24T15:05:04.264Z,101012.63
2022-11-24T15:07:29.322Z,101016.75
2022-11-24T15:10:00.942Z,101010.03
2022-11-24T15:12:42.454Z,101007.69
2022-11-24T15:15:16.018Z,101007.28
2022-11-24T15:18:01.086Z,101007.69
2022-11-24T15:20:37.481Z,101011.59
2022-11-24T15:23:34.252Z,101016.41
2022-11-24T15:26:01.795Z,101023.13
2022-11-24T15:28:31.226Z,101031.56
2022-11-24T15:31:10.067Z,101043.50
2022-11-24T15:33:38.422Z,101046.59
2022-11-24T15:36:06.500Z,101045.03
2022-11-24T15:38:35.391Z,101041.75
2022-11-24T15:41:05.792Z,101037.78
2022-11-24T15:43:41.282Z,101047.81
2022-11-24T15:46:10.082Z,101049.16
2022-11-24T15:48:38.051Z,101042.41
2022-11-24T15:51:15.236Z,101053.25
2022-11-24T15:53:52.472Z,101056.38
2022-11-24T15:56:34.226Z,101055.94
2022-11-24T15:59:03.251Z,101058.91
2022-11-24T16:01:34.654Z,101058.25
2022-11-24T16:04:03.000Z,101064.66
2022-11-24T16:06:30.861Z,101071.16
2022-11-24T16:09:54.052Z,101074.91
2022-11-24T16:12:21.592Z,101070.94
2022-11-24T16:14:49.211Z,101072.91
2022-11-24T16:17:16.688Z,101068.88
2022-11-24T16:19:44.382Z,101068.22
2022-11-24T16:22:11.870Z,101063.19
2022-11-24T16:24:39.792Z,101056.28
2022-11-24T16:27:07.171Z,101055.47
2022-11-24T16:29:38.406Z,101062.75
2022-11-24T16:32:06.957Z,101055.00
2022-11-24T16:34:34.877Z,101061.44
2022-11-24T16:37:02.491Z,101073.16
2022-11-24T16:39:30.327Z,101068.03
2022-11-24T16:41:57.877Z,101081.56
2022-11-24T16:44:25.387Z,101094.31
2022-11-24T16:46:53.958Z,101097.22
2022-11-24T16:49:21.359Z,101100.88
2022-11-24T16:51:48.938Z,101112.53
2022-11-24T16:54:16.377Z,101112.69
2022-11-24T16:56:45.087Z,101110.16
2022-11-24T16:59:13.358Z,101120.06
2022-11-24T17:01:41.234Z,101119.44
2022-11-24T17:04:12.628Z,101125.75
2022-11-24T17:06:40.806Z,101128.56
2022-11-24T17:09:08.416Z,101127.78
2022-11-24T17:11:35.903Z,101143.88
2022-11-24T17:14:03.936Z,101144.03
2022-11-24T17:16:32.048Z,101148.63
2022-11-24T17:19:00.197Z,101148.75
2022-11-24T17:21:28.959Z,101150.69
2022-11-24T17:23:59.877Z,101157.84
2022-11-24T17:26:28.239Z,101155.38
2022-11-24T17:28:56.298Z,101153.75
2022-11-24T17:31:29.919Z,101153.88
2022-11-24T17:33:59.793Z,101161.97
2022-11-24T17:36:28.737Z,101173.69
2022-11-24T17:38:56.522Z,101167.63
2022-11-24T17:41:24.079Z,101163.34
2022-11-24T17:43:53.476Z,101167.00
2022-11-24T17:46:21.540Z,101163.56
2022-11-24T17:48:49.774Z,101168.16
2022-11-24T17:51:21.242Z,101162.97
2022-11-24T17:53:51.202Z,101170.19
2022-11-24T17:56:23.750Z,101176.44
2022-11-24T17:58:57.477Z,101177.44
2022-11-24T18:01:26.832Z,101180.16
2022-11-24T18:03:54.888Z,101188.97
2022-11-24T18:06:26.207Z,101193.69
2022-11-24T18:08:56.047Z,101185.94
2022-11-24T18:11:31.428Z,101182.44
2022-11-24T18:14:03.611Z,101183.38
2022-11-24T18:16:34.519Z,101169.41
2022-11-24T18:19:09.916Z,101168.66
2022-11-24T18:21:40.315Z,101166.97
2022-11-24T18:24:10.251Z,101164.53
2022-11-24T18:26:39.858Z,101178.78
2022-11-24T18:29:09.847Z,101190.44
2022-11-24T18:31:39.270Z,101191.50
2022-11-24T18:34:07.640Z,101198.75
2022-11-24T18:36:35.307Z,101197.06
2022-11-24T18:39:06.293Z,101194.44
2022-11-24T18:41:34.288Z,101196.31
2022-11-24T18:44:08.028Z,101214.22
2022-11-24T18:46:38.428Z,101205.44
2022-11-24T18:49:07.498Z,101203.72
2022-11-24T18:51:35.072Z,101208.28
2022-11-24T18:54:04.191Z,101209.22
2022-11-24T18:56:31.876Z,101214.56
2022-11-24T18:58:59.940Z,101208.47
2022-11-24T19:01:29.248Z,101214.69
2022-11-24T19:04:00.674Z,101224.53
2022-11-24T19:06:35.319Z,101219.25
2022-11-24T19:09:07.848Z,101222.03
2022-11-24T19:11:39.245Z,101228.31
2022-11-24T19:14:11.342Z,101216.94
2022-11-24T19:16:39.717Z,101211.69
2022-11-24T19:19:12.780Z,101211.81
2022-11-24T19:21:41.370Z,101214.56
2022-11-24T19:24:11.366Z,101221.78
2022-11-24T19:26:39.830Z,101226.25
2022-11-24T19:29:10.878Z,101229.00
2022-11-24T19:31:44.060Z,101232.63
2022-11-24T19:34:11.642Z,101233.69
2022-11-24T19:36:40.671Z,101234.66
2022-11-24T19:39:16.195Z,101244.44
2022-11-24T19:41:44.153Z,101258.66
2022-11-24T19:44:13.164Z,101256.00
2022-11-24T19:46:41.085Z,101244.53
2022-11-24T19:49:10.014Z,101243.75
2022-11-24T19:51:40.038Z,101247.31
2022-11-24T19:54:14.736Z,101250.09
2022-11-24T19:56:42.307Z,101260.84
2022-11-24T19:59:10.226Z,101255.53
2022-11-24T20:01:40.948Z,101259.16
2022-11-24T20:04:13.790Z,101265.34
2022-11-24T20:06:46.017Z,101264.56
2022-11-24T20:09:18.904Z,101262.88
2022-11-24T20:11:48.752Z,101257.56
2022-11-24T20:14:19.471Z,101257.66
2022-11-24T20:16:48.077Z,101260.41
2022-11-24T20:19:18.107Z,101256.06
2022-11-24T20:21:47.950Z,101252.63
2022-11-24T20:24:26.072Z,101264.16
2022-11-24T20:26:59.347Z,101260.69
2022-11-24T20:29:29.745Z,101261.66
2022-11-24T20:31:57.410Z,101267.03
2022-11-24T20:34:26.626Z,101259.13
2022-11-24T20:36:54.228Z,101268.97
2022-11-24T20:39:26.653Z,101273.44
2022-11-24T20:41:55.450Z,101276.16
2022-11-24T20:44:25.068Z,101280.63
2022-11-24T20:46:57.185Z,101267.38
2022-11-24T20:49:25.997Z,101277.13
2022-11-24T20:51:57.591Z,101278.09
2022-11-24T20:54:25.305Z,101276.47
2022-11-24T20:56:52.886Z,101275.72
2022-11-24T20:59:23.888Z,101279.31
2022-11-24T21:01:55.529Z,101282.84
2022-11-24T21:04:26.402Z,101290.00
2022-11-24T21:06:54.918Z,101285.59
2022-11-24T21:09:23.047Z,101289.16
2022-11-24T21:11:50.806Z,101295.34
2022-11-24T21:14:18.249Z,101303.28
2022-11-24T21:16:45.797Z,101313.00
2022-11-24T21:19:17.778Z,101304.16
2022-11-24T21:21:51.009Z,101311.31
2022-11-24T21:24:21.925Z,101319.41
2022-11-24T21:26:52.924Z,101323.06
2022-11-24T21:29:23.738Z,101325.78
2022-11-24T21:31:52.168Z,101324.03
2022-11-24T21:34:20.302Z,101323.94
2022-11-24T21:36:48.349Z,101323.03
2022-11-24T21:39:16.881Z,101321.34
2022-11-24T21:41:51.526Z,101325.72
2022-11-24T21:44:19.088Z,101320.44
2022-11-24T21:46:55.694Z,101317.00
2022-11-24T21:49:24.143Z,101323.25
2022-11-24T21:51:55.830Z,101325.88
2022-11-24T21:54:24.142Z,101318.78
2022-11-24T21:56:54.143Z,101318.81
2022-11-24T21:59:22.558Z,101317.97
2022-11-24T22:02:13.402Z,101310.09
2022-11-24T22:04:41.252Z,101310.94
2022-11-24T22:07:09.909Z,101310.09
2022-11-24T22:09:37.322Z,101309.28
2022-11-24T22:12:05.026Z,101314.59
2022-11-24T22:14:36.186Z,101313.78
2022-11-24T22:17:10.701Z,101312.03
2022-11-24T22:19:38.262Z,101315.56
2022-11-24T22:22:05.843Z,101319.00
2022-11-24T22:24:41.329Z,101321.63
2022-11-24T22:27:12.896Z,101325.06
2022-11-24T22:29:40.273Z,101327.63
2022-11-24T22:32:10.237Z,101315.22
2022-11-24T22:34:37.890Z,101312.53
2022-11-24T22:37:06.030Z,101301.94
2022-11-24T22:39:33.546Z,101309.06
2022-11-24T22:42:01.214Z,101301.19
2022-11-24T22:44:29.152Z,101306.59
2022-11-24T22:46:57.131Z,101303.00
2022-11-24T22:49:24.621Z,101310.97
2022-11-24T22:51:52.211Z,101302.97
2022-11-24T22:54:20.012Z,101302.13
2022-11-24T22:56:47.661Z,101302.19
2022-11-24T22:59:15.181Z,101304.88
2022-11-24T23:01:42.781Z,101303.06
2022-11-24T23:04:10.651Z,101307.44
2022-11-24T23:06:38.568Z,101306.44
2022-11-24T23:09:07.027Z,101316.94
2022-11-24T23:11:41.907Z,101316.03
2022-11-24T23:14:15.633Z,101312.44
2022-11-24T23:16:44.617Z,101308.00
2022-11-24T23:19:12.631Z,101311.41
2022-11-24T23:21:40.486Z,101310.56
2022-11-24T23:24:09.956Z,101313.22
2022-11-24T23:26:41.038Z,101314.09
2022-11-24T23:29:10.991Z,101317.63
2022-11-24T23:31:40.321Z,101317.59
2022-11-24T23:34:08.679Z,101317.53
2022-11-24T23:36:36.516Z,101320.25
2022-11-24T23:39:07.237Z,101314.97
2022-11-24T23:41:35.485Z,101321.19
2022-11-24T23:44:03.235Z,101317.69
2022-11-24T23:46:31.275Z,101321.34
2022-11-24T23:48:59.440Z,101313.44
2022-11-24T23:51:30.427Z,101311.72
2022-11-24T23:54:00.642Z,101319.75
2022-11-24T23:56:33.146Z,101319.75
2022-11-24T23:59:05.438Z,101319.00
